Turukhansk, Russia
Current Conditions -  °F | °C
As of 6:00 AM on Friday 28 Nov 2014 (Local Time) from USNN Reporting Station
Clear Clear  
Wind Chill: -43°   Ceiling: Unl
Heat Index: -26°   Visibility: 6mi
Dew Point: -35°   Wind: 7mph
Humidity: 63%   Direction: 310°NW
Pressure: 30.33"   Gusts: 16mph
Location:  65.82°N, 87.98°E
Report Text: USNN 272300Z 31003G07MPS CAVOK M32/M37 Q1027 NOSIG RMK QFE765 21410260
Loading
Personal Weather Stations






























Interactive Weather Map New forecast layout! Learn more

10-Day Weather Forecast

Advertisements
Track Severe Weather on mobile